Time;durP1;ratioP1;P1;durP2;ratioP2;P2;SDS_P1;SDS_P2;PMS_P1;PMS_P2;Temp;Humidity;BMP_temperature;BMP_pressure;BME280_temperature;BME280_humidity;BME280_pressure;Samples;Min_cycle;Max_cycle;Signal;HPM_P1;HPM_P2
2022/05/15 00:01:25;;;;;;;304.08;291.67;;;15.30;99.90;;;15.35;82.50;100421.84;4964238;28;20215;-65
2022/05/15 00:03:53;;;;;;;328.25;314.23;;;15.30;99.90;;;15.52;82.42;100435.00;4960873;28;20212;-66
2022/05/15 00:06:22;;;;;;;338.00;322.85;;;15.30;99.90;;;15.54;81.05;100413.66;4948735;28;20228;-66
2022/05/15 00:08:50;;;;;;;356.60;340.63;;;15.20;99.90;;;15.66;80.44;100425.13;4961702;28;20236;-65
2022/05/15 00:11:18;;;;;;;337.17;323.02;;;15.30;99.90;;;15.49;80.68;100394.16;4976533;28;20228;-65
2022/05/15 00:13:47;;;;;;;320.75;306.13;;;15.30;99.90;;;15.50;79.53;100383.50;4960234;28;20209;-65
2022/05/15 00:16:17;;;;;;;329.48;315.17;;;15.30;99.90;;;15.51;80.23;100379.94;4966138;28;20201;-65
2022/05/15 00:18:46;;;;;;;350.23;334.50;;;15.30;99.90;;;15.41;80.11;100375.59;4963172;28;20220;-65
2022/05/15 00:21:14;;;;;;;363.40;347.25;;;15.20;99.90;;;15.40;79.61;100362.31;4964555;28;20211;-65
2022/05/15 00:23:43;;;;;;;361.10;345.00;;;15.10;99.90;;;15.51;79.31;100366.59;4965521;28;20204;-65
2022/05/15 00:26:11;;;;;;;337.42;323.13;;;15.10;99.90;;;15.56;78.48;100361.22;4954115;28;20235;-65
2022/05/15 00:28:39;;;;;;;350.77;335.02;;;15.20;99.90;;;15.56;78.30;100353.22;4963082;28;20221;-65
2022/05/15 00:31:11;;;;;;;330.88;316.15;;;15.20;99.90;;;15.49;77.88;100344.41;4956139;28;20206;-65
2022/05/15 00:33:39;;;;;;;354.63;338.98;;;15.20;99.90;;;15.46;77.49;100336.47;4960466;28;20212;-65
2022/05/15 00:36:07;;;;;;;334.70;319.70;;;15.20;99.90;;;15.38;77.68;100325.00;4942814;28;20213;-65
2022/05/15 00:38:35;;;;;;;323.73;309.85;;;15.10;99.90;;;15.35;78.92;100328.59;4982026;28;20211;-65
2022/05/15 00:41:05;;;;;;;331.60;317.05;;;15.10;99.90;;;15.38;78.51;100338.34;4981115;28;20215;-65
2022/05/15 00:43:46;;;;;;;320.70;306.65;;;15.10;99.90;;;15.35;78.42;100336.59;4959868;28;20213;-65
2022/05/15 00:46:29;;;;;;;355.38;339.50;;;15.10;99.90;;;15.32;79.23;100341.06;4994366;28;20212;-65
2022/05/15 00:49:02;;;;;;;357.70;342.02;;;15.10;99.90;;;15.37;79.33;100356.09;4983066;28;20232;-65
2022/05/15 00:51:42;;;;;;;340.50;325.42;;;15.10;99.90;;;15.36;79.71;100358.78;4977185;28;20205;-65
2022/05/15 00:54:13;;;;;;;369.00;353.50;;;15.00;99.90;;;15.21;80.10;100337.66;4960747;28;20205;-65
2022/05/15 00:56:51;;;;;;;375.98;359.33;;;15.00;99.90;;;15.25;80.77;100358.91;4981146;28;20336;-65
2022/05/15 00:59:23;;;;;;;396.73;378.70;;;15.00;99.90;;;15.22;81.27;100366.06;4947537;28;20239;-65
2022/05/15 01:01:51;;;;;;;375.95;359.15;;;15.00;99.90;;;15.23;81.39;100375.81;4950752;28;20212;-64
2022/05/15 01:04:21;;;;;;;394.73;377.30;;;14.90;99.90;;;15.16;82.25;100382.09;4951362;28;20209;-65
2022/05/15 01:07:02;;;;;;;376.52;360.00;;;14.90;99.90;;;15.22;82.98;100398.03;4963437;28;20205;-65
2022/05/15 01:09:31;;;;;;;383.58;366.27;;;15.00;99.90;;;15.13;83.38;100411.44;4953343;28;20298;-65
2022/05/15 01:12:02;;;;;;;371.75;355.50;;;15.00;99.90;;;15.05;84.16;100412.41;4972067;28;20201;-65
2022/05/15 01:14:32;;;;;;;389.13;372.13;;;14.90;99.90;;;14.96;85.13;100419.59;4972749;28;20212;-65
2022/05/15 01:17:00;;;;;;;377.48;361.02;;;14.80;99.90;;;14.99;85.57;100440.88;4958379;28;20200;-65
2022/05/15 01:19:34;;;;;;;394.23;376.23;;;14.80;99.90;;;15.06;86.00;100463.88;4979699;28;20233;-65
2022/05/15 01:22:04;;;;;;;362.20;346.52;;;14.80;99.90;;;15.02;86.15;100464.81;4950140;28;20213;-64
2022/05/15 01:24:33;;;;;;;402.50;384.48;;;14.70;99.90;;;14.98;86.83;100477.25;4964639;28;20216;-65
2022/05/15 01:27:09;;;;;;;351.85;336.45;;;14.70;99.90;;;14.91;87.35;100486.19;4963514;28;20204;-65
2022/05/15 01:29:45;;;;;;;377.48;360.23;;;14.70;99.90;;;14.89;88.10;100487.09;4946911;28;20236;-65
2022/05/15 01:32:17;;;;;;;402.85;385.38;;;14.60;99.90;;;14.94;87.59;100502.16;4967608;28;20220;-65
2022/05/15 01:34:45;;;;;;;396.45;379.20;;;14.60;99.90;;;14.86;87.95;100495.13;4977461;28;20201;-65
2022/05/15 01:37:13;;;;;;;424.30;405.58;;;14.70;99.90;;;14.82;87.79;100504.91;4976357;28;20582;-65
2022/05/15 01:39:41;;;;;;;414.02;395.25;;;14.60;99.90;;;14.73;88.51;100507.63;4969723;28;20590;-65
2022/05/15 01:42:09;;;;;;;445.42;425.35;;;14.60;99.90;;;14.88;88.13;100538.59;4933304;28;20209;-65
2022/05/15 01:44:37;;;;;;;440.25;420.73;;;14.60;99.90;;;14.82;88.16;100534.19;4933945;28;20212;-65
2022/05/15 01:47:06;;;;;;;462.50;441.85;;;14.50;99.90;;;14.81;88.38;100543.06;4967983;28;20215;-65
2022/05/15 01:49:34;;;;;;;451.42;430.70;;;14.50;99.90;;;14.69;88.30;100527.19;4942661;28;20238;-65
2022/05/15 01:52:04;;;;;;;467.85;446.40;;;14.50;99.90;;;14.75;88.67;100542.22;4980511;28;20205;-65
2022/05/15 01:54:33;;;;;;;473.80;452.42;;;14.40;99.90;;;14.69;88.31;100535.16;4948478;28;20200;-65
2022/05/15 01:57:02;;;;;;;522.92;498.15;;;14.40;99.90;;;14.74;88.47;100552.00;4987682;28;20219;-65
2022/05/15 01:59:29;;;;;;;579.90;550.60;;;14.50;99.90;;;14.78;87.80;100553.75;4967866;28;20236;-65
2022/05/15 02:01:58;;;;;;;606.30;574.40;;;14.50;99.90;;;14.63;87.89;100543.19;4970419;28;20201;-65
2022/05/15 02:04:26;;;;;;;614.60;581.85;;;14.40;99.90;;;14.67;88.00;100539.63;4945852;28;20220;-65
2022/05/15 02:06:53;;;;;;;604.03;571.50;;;14.40;99.90;;;14.65;87.69;100541.41;4947193;28;20216;-65
2022/05/15 02:09:22;;;;;;;612.72;580.50;;;14.40;99.90;;;14.55;87.87;100529.03;4966230;28;20240;-65
2022/05/15 02:11:50;;;;;;;622.75;588.17;;;14.30;99.90;;;14.42;88.07;100528.22;4982401;28;20209;-65
2022/05/15 02:14:18;;;;;;;628.00;592.22;;;14.30;99.90;;;14.38;88.36;100522.00;4960498;28;20666;-65
2022/05/15 02:16:45;;;;;;;625.70;589.75;;;14.20;99.90;;;14.32;88.33;100521.16;4944947;28;20201;-65
2022/05/15 02:19:13;;;;;;;632.15;595.17;;;14.20;99.90;;;14.26;88.37;100519.38;4980479;28;20237;-65
2022/05/15 02:21:42;;;;;;;423.88;405.00;;;14.20;99.90;;;14.38;88.38;100540.63;4960625;28;20477;-65
2022/05/15 02:24:10;;;;;;;412.77;393.95;;;14.10;99.90;;;14.37;87.85;100541.50;4960569;28;20251;-65
2022/05/15 02:26:39;;;;;;;428.33;409.10;;;14.10;99.90;;;14.32;88.19;100526.47;4947960;28;20219;-65
2022/05/15 02:29:08;;;;;;;402.00;384.60;;;14.10;99.90;;;14.31;87.97;100530.91;4981669;28;20229;-65
2022/05/15 02:31:37;;;;;;;408.95;390.35;;;14.10;99.90;;;14.24;88.38;100523.81;4931477;28;20212;-64
2022/05/15 02:34:06;;;;;;;417.15;398.38;;;14.10;99.90;;;14.24;87.83;100529.13;4979933;28;20208;-65
2022/05/15 02:36:34;;;;;;;414.88;396.60;;;14.10;99.90;;;14.20;88.29;100530.03;4960826;28;20209;-65
2022/05/15 02:39:03;;;;;;;430.85;411.48;;;14.00;99.90;;;14.14;87.93;100527.41;4962373;28;20621;-65
2022/05/15 02:41:33;;;;;;;436.13;416.63;;;14.00;99.90;;;14.24;88.03;100545.09;4960038;28;20208;-65
2022/05/15 02:44:02;;;;;;;433.92;414.60;;;14.00;99.90;;;14.14;88.33;100539.81;4964769;28;20285;-65
2022/05/15 02:46:30;;;;;;;437.90;418.65;;;14.00;99.90;;;14.05;88.58;100523.00;4971415;28;20200;-65
2022/05/15 02:51:45;;;;;;;422.38;404.08;;;13.80;99.90;;;13.99;89.59;100541.63;4982878;28;20223;-65
2022/05/15 02:54:15;;;;;;;442.02;421.58;;;13.80;99.90;;;13.91;89.67;100540.78;4978959;28;20197;-65
2022/05/15 02:56:44;;;;;;;440.05;420.02;;;13.80;99.90;;;13.86;90.14;100544.34;4965626;28;20204;-64
2022/05/15 02:59:12;;;;;;;431.80;412.50;;;13.70;99.90;;;13.75;90.40;100534.63;4962515;28;20229;-65
2022/05/15 03:01:40;;;;;;;460.80;439.40;;;13.70;99.90;;;13.71;91.33;100548.78;4957648;28;20591;-65
2022/05/15 03:04:08;;;;;;;428.15;408.50;;;13.60;99.90;;;13.58;91.70;100552.38;4942864;28;20566;-65
2022/05/15 03:06:36;;;;;;;437.77;417.50;;;13.50;99.90;;;13.66;91.58;100573.63;4954945;28;20213;-65
2022/05/15 03:09:05;;;;;;;452.73;431.70;;;13.50;99.90;;;13.68;91.61;100582.47;4964114;28;20228;-65
2022/05/15 03:11:33;;;;;;;464.85;444.00;;;13.50;99.90;;;13.59;92.49;100590.44;4980279;28;20232;-65
2022/05/15 03:14:01;;;;;;;476.10;454.10;;;13.50;99.90;;;13.56;92.23;100598.44;4976280;28;20209;-65
2022/05/15 03:16:29;;;;;;;480.48;457.00;;;13.50;99.90;;;13.61;92.64;100612.59;4945701;28;20216;-65
2022/05/15 03:18:58;;;;;;;499.65;475.15;;;13.50;99.90;;;13.38;93.10;100604.63;4981393;28;20232;-64
2022/05/15 03:21:29;;;;;;;509.95;484.83;;;13.50;99.90;;;13.35;94.05;100609.94;4965684;28;20209;-64
2022/05/15 03:24:04;;;;;;;499.00;474.48;;;13.40;99.90;;;13.42;93.85;100628.53;4979919;28;20212;-65
2022/05/15 03:26:35;;;;;;;483.55;460.02;;;13.30;99.90;;;13.14;95.15;100621.38;4967625;28;20211;-65
2022/05/15 03:29:03;;;;;;;491.95;468.52;;;13.30;99.90;;;13.09;96.17;100636.44;4946962;28;20232;-64
2022/05/15 03:31:35;;;;;;;511.08;485.80;;;13.20;99.90;;;13.03;96.36;100639.97;4964504;28;20221;-65
2022/05/15 03:34:07;;;;;;;528.28;501.77;;;13.10;99.90;;;13.00;96.94;100647.91;4939647;28;20213;-65
2022/05/15 03:36:37;;;;;;;514.17;488.10;;;13.10;99.90;;;13.02;96.90;100659.44;4947191;28;20208;-65
2022/05/15 03:39:07;;;;;;;526.00;499.48;;;13.00;99.90;;;13.06;97.16;100671.81;4974774;28;20235;-65
2022/05/15 03:41:37;;;;;;;480.23;456.55;;;13.10;99.90;;;13.05;97.37;100688.63;4946275;28;20665;-65
2022/05/15 03:44:06;;;;;;;479.75;457.15;;;13.10;99.90;;;13.02;97.65;100688.63;4973808;28;20200;-65
2022/05/15 03:46:35;;;;;;;478.30;455.52;;;13.10;99.90;;;13.11;97.25;100703.69;4979935;28;20231;-64
2022/05/15 03:49:03;;;;;;;497.88;473.27;;;13.00;99.90;;;13.23;96.54;100727.66;4972470;28;20240;-64
2022/05/15 03:51:32;;;;;;;489.25;464.92;;;13.10;99.90;;;13.18;96.98;100721.47;4946767;28;20227;-65
2022/05/15 03:54:00;;;;;;;468.80;445.40;;;13.10;99.90;;;13.22;96.25;100725.00;4962955;28;20200;-64
2022/05/15 03:59:17;;;;;;;470.60;448.42;;;13.20;99.90;;;13.27;96.17;100739.19;4971530;28;20228;-65
2022/05/15 04:01:45;;;;;;;446.17;425.02;;;13.20;99.90;;;13.31;96.02;100740.97;4964110;28;20205;-65
2022/05/15 04:04:13;;;;;;;483.88;459.58;;;13.10;99.90;;;13.30;95.99;100740.09;4975849;28;20301;-65
2022/05/15 04:06:41;;;;;;;463.63;441.13;;;13.10;99.90;;;13.23;96.26;100735.63;4978672;28;20205;-65
2022/05/15 04:09:09;;;;;;;465.08;442.90;;;13.10;99.90;;;13.27;96.20;100742.72;4947621;28;20256;-64
2022/05/15 04:11:37;;;;;;;444.98;423.60;;;13.10;99.90;;;13.26;96.35;100745.38;4963527;28;20229;-64
2022/05/15 04:14:06;;;;;;;450.38;428.80;;;13.10;99.90;;;13.31;96.55;100752.47;4947555;28;20201;-65
2022/05/15 04:16:35;;;;;;;452.25;430.08;;;13.20;99.90;;;13.32;95.64;100748.06;4979819;28;20214;-65
2022/05/15 04:19:04;;;;;;;440.92;420.55;;;13.20;99.90;;;13.34;95.49;100739.22;4948516;28;20582;-65
2022/05/15 04:21:37;;;;;;;467.02;444.63;;;13.20;99.90;;;13.30;95.92;100748.06;4946751;28;20216;-65
2022/05/15 04:24:11;;;;;;;455.70;434.15;;;13.20;99.90;;;13.18;97.25;100752.44;4972121;28;20209;-65
2022/05/15 04:26:41;;;;;;;459.33;437.30;;;13.20;99.90;;;12.99;99.57;100748.75;4957075;28;20222;-65
2022/05/15 04:29:09;;;;;;;466.98;444.55;;;13.10;99.90;;;12.88;100.00;100758.44;4961368;28;20232;-65
2022/05/15 04:31:38;;;;;;;438.52;418.38;;;13.10;99.90;;;12.79;100.00;100765.47;4946707;28;20677;-65
2022/05/15 04:34:06;;;;;;;449.88;428.33;;;13.00;99.90;;;12.81;100.00;100790.25;4979712;28;20583;-65
2022/05/15 04:36:35;;;;;;;441.92;420.90;;;13.00;99.90;;;12.95;100.00;100808.91;4962281;28;20215;-65
2022/05/15 04:39:05;;;;;;;442.98;422.35;;;13.00;99.90;;;13.06;100.00;100825.81;4970532;28;20728;-64
2022/05/15 04:41:33;;;;;;;442.42;420.65;;;13.00;99.90;;;13.10;100.00;100810.78;4971865;28;20227;-65
2022/05/15 04:44:01;;;;;;;449.50;427.63;;;13.00;99.90;;;13.08;100.00;100815.22;4968567;28;20200;-65
2022/05/15 04:46:29;;;;;;;455.65;432.85;;;13.10;99.90;;;13.10;100.00;100837.34;4960424;28;20212;-65
2022/05/15 04:48:58;;;;;;;460.23;437.70;;;13.10;99.90;;;13.02;100.00;100837.31;4946244;28;20233;-65
2022/05/15 04:51:28;;;;;;;486.00;461.63;;;13.10;99.90;;;13.00;100.00;100856.72;4944313;28;20214;-65
2022/05/15 04:53:56;;;;;;;476.10;452.35;;;13.10;99.90;;;13.02;100.00;100855.91;4956138;28;20209;-65
2022/05/15 04:56:25;;;;;;;468.30;445.33;;;13.10;99.90;;;13.21;100.00;100874.63;4971213;28;20209;-65
2022/05/15 04:58:53;;;;;;;467.83;444.52;;;13.10;99.90;;;13.31;100.00;100868.47;4982542;28;20217;-65
2022/05/15 05:01:24;;;;;;;467.85;444.02;;;13.20;99.90;;;13.41;100.00;100871.19;4969054;28;20236;-65
2022/05/15 05:03:54;;;;;;;449.70;428.10;;;13.20;99.90;;;13.52;100.00;100876.53;4964340;28;20209;-65
2022/05/15 05:06:23;;;;;;;449.27;427.73;;;13.20;99.90;;;13.59;100.00;100891.63;4976655;28;20232;-65
2022/05/15 05:08:52;;;;;;;456.52;434.25;;;13.40;99.90;;;13.71;100.00;100889.00;4970059;28;20197;-65
2022/05/15 05:11:20;;;;;;;446.75;425.85;;;13.40;99.90;;;13.82;99.91;100897.00;4951901;28;20223;-65
2022/05/15 05:13:48;;;;;;;467.23;443.63;;;13.50;99.90;;;13.94;97.59;100881.09;4982206;28;20208;-65
2022/05/15 05:16:17;;;;;;;460.85;438.67;;;13.50;99.90;;;13.96;98.27;100887.31;4965456;28;20213;-65
2022/05/15 05:18:45;;;;;;;465.17;442.55;;;13.60;99.90;;;14.07;96.96;100890.88;4968837;28;20204;-65
2022/05/15 05:21:14;;;;;;;482.42;458.75;;;;;;;14.17;97.48;100905.06;4966419;28;20216;-65
2022/05/15 05:23:41;;;;;;;487.70;463.75;;;13.70;99.90;;;14.22;97.79;100907.75;5006267;28;20209;-65
2022/05/15 05:26:09;;;;;;;468.02;445.30;;;13.70;99.90;;;14.30;97.88;100913.97;4977099;28;20207;-65
2022/05/15 05:28:37;;;;;;;463.92;442.55;;;13.80;99.90;;;14.46;96.64;100921.16;5008092;28;20209;-65
2022/05/15 05:31:06;;;;;;;473.00;450.83;;;13.90;99.90;;;14.59;97.31;100927.38;4972126;28;20476;-65
2022/05/15 05:33:34;;;;;;;465.23;443.10;;;14.10;99.90;;;14.61;97.29;100922.94;4952039;28;20212;-65
2022/05/15 05:36:02;;;;;;;468.30;446.58;;;14.10;99.90;;;14.73;99.04;100942.47;4983362;28;20203;-65
2022/05/15 05:38:35;;;;;;;473.95;451.70;;;14.20;99.90;;;14.90;100.00;100968.19;4981500;28;20204;-65
2022/05/15 05:41:03;;;;;;;478.17;455.65;;;14.30;99.90;;;14.93;98.82;100954.88;4949337;28;20240;-65
2022/05/15 05:43:32;;;;;;;471.73;449.85;;;14.30;99.90;;;15.03;99.31;100957.53;4970387;28;20209;-65
2022/05/15 05:46:01;;;;;;;469.52;448.20;;;14.40;99.90;;;15.10;100.00;100968.19;4966156;28;20228;-65
2022/05/15 05:48:29;;;;;;;490.67;467.42;;;14.60;99.90;;;15.27;98.92;100975.25;4983744;28;20208;-65
2022/05/15 05:50:58;;;;;;;511.33;486.70;;;14.70;99.90;;;15.45;99.74;100993.00;4950832;28;20225;-65
2022/05/15 05:53:25;;;;;;;518.10;493.10;;;14.80;99.90;;;15.52;97.67;100962.78;4976408;28;20215;-65
2022/05/15 05:55:53;;;;;;;524.28;499.58;;;14.90;99.90;;;15.67;97.93;100976.13;4984178;28;20212;-65
2022/05/15 05:58:21;;;;;;;494.48;471.25;;;15.00;99.90;;;15.74;97.71;100968.09;4953790;28;20208;-65
2022/05/15 06:00:50;;;;;;;524.08;497.55;;;15.20;99.90;;;15.75;96.97;100952.09;4966016;28;20225;-65
2022/05/15 06:06:05;;;;;;;551.50;525.00;;;15.30;99.90;;;15.96;95.96;100945.78;4983860;28;20216;-65
2022/05/15 06:08:33;;;;;;;552.67;525.72;;;15.40;99.90;;;15.98;94.13;100914.66;4963429;28;20209;-65
2022/05/15 06:11:01;;;;;;;541.03;515.30;;;15.50;99.90;;;15.99;94.91;100908.41;4960108;28;20236;-65
2022/05/15 06:13:29;;;;;;;566.95;539.17;;;15.50;99.90;;;16.15;94.61;100914.56;4931218;28;20208;-65
2022/05/15 06:15:57;;;;;;;539.90;513.33;;;15.60;99.90;;;16.36;93.16;100913.53;4946648;28;21722;-65
2022/05/15 06:18:25;;;;;;;583.60;553.88;;;15.70;99.90;;;16.30;93.25;100903.78;4957707;28;20209;-64
2022/05/15 06:20:53;;;;;;;554.97;528.55;;;15.80;99.90;;;16.49;92.58;100907.19;4944728;28;20236;-65
2022/05/15 06:23:21;;;;;;;607.50;576.85;;;15.90;99.90;;;16.56;92.68;100909.81;4940821;28;20240;-66
2022/05/15 06:25:50;;;;;;;607.38;576.28;;;16.00;99.90;;;16.58;92.31;100894.66;4952178;28;20211;-66
2022/05/15 06:28:19;;;;;;;533.63;508.65;;;16.10;99.90;;;16.79;92.76;100900.75;4964759;28;20201;-66
2022/05/15 06:30:47;;;;;;;523.50;499.00;;;16.30;99.90;;;16.73;92.16;100893.69;4966573;28;20228;-66
2022/05/15 06:33:15;;;;;;;512.53;488.30;;;16.40;99.90;;;16.75;92.59;100889.19;4974479;28;20602;-66
2022/05/15 06:35:44;;;;;;;493.42;471.05;;;16.50;99.90;;;16.91;93.08;100898.88;4976566;28;20224;-65
2022/05/15 06:38:12;;;;;;;487.08;464.80;;;16.50;99.90;;;17.00;93.06;100902.38;4972866;28;20213;-65
2022/05/15 06:40:40;;;;;;;473.10;452.30;;;16.60;99.90;;;16.98;93.00;100885.47;4958275;28;20227;-66
2022/05/15 06:43:09;;;;;;;469.88;448.17;;;16.60;99.90;;;17.17;92.50;100897.72;4962523;28;20227;-66
2022/05/15 06:45:37;;;;;;;443.83;423.00;;;16.70;99.90;;;17.12;90.90;100870.16;4970608;28;20212;-65
2022/05/15 06:48:05;;;;;;;430.67;410.98;;;16.80;99.90;;;17.47;91.35;100896.50;4972748;28;20222;-66
2022/05/15 06:50:33;;;;;;;425.48;405.50;;;16.90;99.90;;;18.00;89.68;100900.31;4948819;28;20233;-66
2022/05/15 06:53:02;;;;;;;409.35;389.85;;;17.20;99.90;;;18.02;89.62;100879.75;4975006;28;20216;-66
2022/05/15 06:55:30;;;;;;;398.95;381.27;;;17.40;99.90;;;17.99;90.02;100867.31;4961222;28;20211;-66
2022/05/15 06:57:58;;;;;;;389.58;372.67;;;17.60;99.90;;;17.73;90.12;100840.03;4959621;28;20205;-66
2022/05/15 07:00:29;;;;;;;390.40;372.40;;;17.60;99.90;;;17.79;90.31;100850.66;4981136;28;20244;-66
2022/05/15 07:02:57;;;;;;;380.58;363.48;;;17.60;99.90;;;17.92;89.60;100838.88;4971412;28;20239;-66
2022/05/15 07:05:31;;;;;;;386.63;369.25;;;17.70;99.90;;;17.70;89.89;100818.69;4925270;28;20579;-66
2022/05/15 07:07:59;;;;;;;381.85;364.20;;;17.70;99.90;;;17.99;88.01;100823.59;4948095;28;20208;-66
2022/05/15 07:10:26;;;;;;;391.85;373.38;;;17.70;99.90;;;18.14;84.78;100786.78;4952232;28;20236;-65
2022/05/15 07:12:54;;;;;;;382.05;364.70;;;17.70;99.90;;;18.34;84.00;100762.38;4956701;28;20204;-65
2022/05/15 07:15:23;;;;;;;412.35;392.23;;;17.90;99.90;;;18.38;83.79;100753.38;4971854;28;20205;-65
2022/05/15 07:17:51;;;;;;;397.92;379.75;;;18.00;99.90;;;18.31;86.71;100769.56;4958333;28;20204;-65
2022/05/15 07:20:19;;;;;;;401.83;382.27;;;18.10;99.90;;;18.49;84.60;100759.44;4954160;28;20231;-65
2022/05/15 07:22:48;;;;;;;386.65;368.83;;;18.20;99.90;;;18.49;81.56;100721.03;4967875;28;20221;-66
2022/05/15 07:25:16;;;;;;;383.88;366.65;;;18.20;99.90;;;18.58;81.93;100711.94;4952995;28;20216;-66
2022/05/15 07:27:44;;;;;;;383.48;366.27;;;18.30;99.90;;;18.86;82.91;100731.97;4955942;28;20205;-66
2022/05/15 07:30:13;;;;;;;374.48;357.60;;;18.50;99.90;;;18.79;83.19;100720.47;4943627;28;20232;-66
2022/05/15 07:32:44;;;;;;;376.55;358.83;;;18.60;99.90;;;18.81;81.85;100702.56;4957493;28;20220;-66
2022/05/15 07:35:12;;;;;;;370.20;353.25;;;18.70;99.90;;;19.05;81.25;100697.63;4957964;28;20209;-66
2022/05/15 07:37:40;;;;;;;354.77;337.70;;;18.80;99.90;;;19.21;82.76;100709.78;4939014;28;20212;-66
2022/05/15 07:40:09;;;;;;;362.90;345.50;;;19.00;99.90;;;19.73;80.47;100712.19;4977735;28;20232;-66
2022/05/15 07:42:39;;;;;;;358.20;341.23;;;19.30;99.90;;;19.46;80.10;100661.81;4944834;28;20705;-66
2022/05/15 07:45:08;;;;;;;356.60;339.42;;;19.50;99.90;;;19.68;79.82;100671.19;4960945;28;20209;-66
2022/05/15 07:47:36;;;;;;;364.02;346.20;;;19.60;99.90;;;19.89;78.82;100650.97;4960872;28;20225;-66
2022/05/15 07:50:06;;;;;;;341.67;326.00;;;19.80;99.90;;;19.87;77.96;100636.72;4974941;28;20235;-66
2022/05/15 07:52:35;;;;;;;341.75;325.17;;;19.80;99.90;;;19.94;76.13;100597.16;4939082;28;20677;-66
2022/05/15 07:55:08;;;;;;;329.25;313.27;;;20.00;99.90;;;20.31;75.28;100599.72;4943161;28;20212;-66
2022/05/15 07:57:36;;;;;;;361.95;344.23;;;20.30;99.90;;;20.54;74.88;100597.28;4960081;28;20658;-66
2022/05/15 08:00:10;;;;;;;363.27;346.05;;;20.30;99.90;;;20.73;76.25;100589.56;4953416;28;20228;-66
2022/05/15 08:02:42;;;;;;;378.17;359.85;;;20.60;99.90;;;20.57;76.76;100589.13;4957501;28;20227;-66
2022/05/15 08:08:09;;;;;;;447.98;422.48;;;21.10;99.90;;;20.91;76.12;100580.97;4950343;28;20211;-66
2022/05/15 08:10:41;;;;;;;445.63;423.50;;;21.10;99.90;;;21.34;75.54;100596.63;4963296;28;20229;-66
2022/05/15 08:13:23;;;;;;;449.13;425.17;;;21.40;99.90;;;21.08;74.51;100532.91;4953829;28;20216;-66
2022/05/15 08:15:51;;;;;;;447.45;423.88;;;21.50;99.90;;;21.10;73.00;100497.91;4952133;28;20223;-66
2022/05/15 08:23:56;;;;;;;434.20;412.48;;;21.90;99.90;;;21.85;71.62;100453.13;4975164;28;20594;-66
2022/05/15 08:26:25;;;;;;;451.38;428.15;;;22.30;99.90;;;21.58;70.92;100395.81;4972227;28;20216;-66
2022/05/15 08:28:53;;;;;;;444.85;421.52;;;22.40;99.90;;;21.55;71.17;100381.59;4960096;28;20208;-66
2022/05/15 08:31:24;;;;;;;436.20;413.80;;;22.20;99.90;;;21.97;69.76;100398.81;4939787;28;20204;-66
2022/05/15 08:33:53;;;;;;;428.15;405.77;;;22.50;99.90;;;22.44;71.33;100449.13;4963373;28;20221;-66
2022/05/15 08:36:21;;;;;;;429.10;406.30;;;22.70;99.90;;;22.28;72.00;100436.28;4945791;28;20213;-66
2022/05/15 08:38:49;;;;;;;444.50;419.98;;;22.90;99.90;;;22.72;71.16;100448.91;4986123;28;20220;-66
2022/05/15 08:41:33;;;;;;;435.40;412.35;;;23.10;99.90;;;22.07;70.86;100334.72;4970867;28;20215;-66
2022/05/15 08:44:32;;;;;;;437.52;414.38;;;23.30;99.90;;;22.87;70.01;100413.25;4989786;28;20223;-66
2022/05/15 08:47:35;;;;;;;428.45;406.88;;;23.80;99.90;;;23.04;69.45;100372.97;4975612;28;20652;-67
2022/05/15 08:50:14;;;;;;;417.45;395.02;;;24.20;99.90;;;23.09;68.73;100354.75;4943351;28;20233;-66
2022/05/15 08:53:02;;;;;;;415.02;392.85;;;24.20;99.90;;;23.08;70.60;100349.44;4946063;28;20212;-66
2022/05/15 08:55:41;;;;;;;408.45;386.60;;;24.30;99.90;;;22.98;71.36;100343.56;4958252;28;20212;-66
2022/05/15 08:58:36;;;;;;;410.58;388.52;;;23.90;99.90;;;23.12;70.27;100332.16;4962276;28;20197;-66
2022/05/15 09:01:07;;;;;;;425.98;402.85;;;23.90;99.90;;;23.41;69.43;100333.59;4986065;28;20215;-66
2022/05/15 09:03:38;;;;;;;422.67;398.67;;;24.20;99.90;;;23.70;68.92;100337.69;4957500;28;20234;-66
2022/05/15 09:06:28;;;;;;;424.45;400.23;;;24.40;99.90;;;23.96;68.73;100336.47;4962873;28;20219;-66
2022/05/15 09:09:02;;;;;;;378.80;357.50;;;24.80;99.90;;;23.60;70.96;100305.72;4953676;28;20216;-67
2022/05/15 09:11:57;;;;;;;373.05;352.38;;;24.60;99.90;;;24.11;68.90;100327.63;4970570;28;20223;-66
2022/05/15 09:14:59;;;;;;;376.25;355.30;;;24.90;99.90;;;24.01;66.43;100240.75;4964127;28;20216;-66
2022/05/15 09:17:47;;;;;;;392.23;370.48;;;25.20;99.90;;;24.46;67.13;100290.78;4954396;28;20218;-67
2022/05/15 09:20:25;;;;;;;406.23;381.25;;;25.00;99.90;;;23.76;66.09;100151.09;4971509;28;20714;-66
2022/05/15 09:23:34;;;;;;;396.13;373.48;;;24.90;99.90;;;24.34;68.76;100251.72;4973129;28;20239;-66
2022/05/15 09:26:06;;;;;;;393.15;369.95;;;24.70;99.90;;;23.93;66.76;100165.50;4980833;28;20223;-66
2022/05/15 09:28:49;;;;;;;406.60;382.63;;;24.70;99.90;;;24.28;67.82;100211.50;4951394;28;20204;-66
2022/05/15 09:31:29;;;;;;;404.95;380.95;;;24.60;99.90;;;24.98;66.83;100247.56;4935819;28;20208;-66
2022/05/15 09:34:04;;;;;;;383.58;360.80;;;25.20;99.90;;;25.00;67.13;100237.53;4972260;28;20216;-66
2022/05/15 09:36:34;;;;;;;393.67;370.80;;;25.30;99.90;;;25.28;65.09;100223.38;4965508;28;20215;-66
2022/05/15 09:39:35;;;;;;;397.00;373.10;;;25.60;99.90;;;24.73;64.86;100105.50;4974625;28;20231;-66
2022/05/15 09:45:16;;;;;;;406.58;381.33;;;25.20;99.90;;;24.40;65.04;100064.91;4969953;28;20234;-66
2022/05/15 09:48:06;;;;;;;410.13;386.00;;;25.10;99.90;;;25.32;65.27;100163.56;4958995;28;20203;-66
2022/05/15 09:50:42;;;;;;;414.75;389.55;;;25.20;99.90;;;24.76;64.41;100063.91;4954107;28;20224;-66
2022/05/15 09:53:43;;;;;;;398.27;374.48;;;25.30;99.90;;;25.51;62.27;100098.44;4938309;28;20211;-67
2022/05/15 09:56:20;;;;;;;427.30;401.75;;;25.70;99.90;;;25.89;62.54;100103.47;4950574;28;20209;-66
2022/05/15 09:58:51;;;;;;;433.40;409.13;;;26.10;99.90;;;25.52;62.31;100035.19;4971019;28;20214;-66
2022/05/15 10:01:48;;;;;;;439.48;413.17;;;26.10;99.90;;;25.71;62.42;100037.72;4976957;28;20220;-67
2022/05/15 10:04:30;;;;;;;443.05;417.27;;;26.20;99.90;;;25.89;63.08;100057.41;4970079;28;20254;-67
2022/05/15 10:07:06;;;;;;;456.35;429.75;;;26.00;99.90;;;26.25;61.65;100054.31;4936078;28;20213;-67
2022/05/15 10:09:41;;;;;;;469.30;440.00;;;26.40;99.90;;;26.74;61.60;100076.56;4949690;28;20227;-67
2022/05/15 10:12:27;;;;;;;453.75;426.23;;;26.90;99.90;;;26.03;60.13;99938.25;4953168;28;20208;-67
2022/05/15 10:15:16;;;;;;;465.60;436.35;;;26.50;99.90;;;26.79;58.96;99990.34;4980126;28;20650;-67
2022/05/15 10:18:03;;;;;;;464.83;436.77;;;26.80;99.90;;;25.56;60.34;99827.41;4952498;28;20219;-67
2022/05/15 10:20:54;;;;;;;434.88;410.00;;;26.40;99.90;;;25.67;60.08;99838.47;4985593;28;20278;-67
2022/05/15 10:23:55;;;;;;;435.40;409.60;;;26.20;99.90;;;25.64;59.45;99825.09;4973268;28;20232;-67
2022/05/15 10:27:02;;;;;;;469.83;441.48;;;26.10;99.90;;;26.84;58.96;99939.34;4976279;28;20216;-68